Time;durP1;ratioP1;P1;durP2;ratioP2;P2;SDS_P1;SDS_P2;PMS_P1;PMS_P2;Temp;Humidity;BMP_temperature;BMP_pressure;BME280_temperature;BME280_humidity;BME280_pressure;Samples;Min_cycle;Max_cycle;Signal;HPM_P1;HPM_P2
2023/12/16 00:00:43;;;;;;;4.83;3.70;;;16.30;66.10;17.30;103070.00;;;;5065113;28;20257;-46
2023/12/16 00:03:10;;;;;;;4.27;3.70;;;16.30;66.10;17.30;103071.00;;;;5063379;28;20191;-46
2023/12/16 00:05:36;;;;;;;4.50;3.60;;;16.30;66.10;17.20;103074.00;;;;5068418;28;20717;-46
2023/12/16 00:08:02;;;;;;;4.70;3.97;;;16.30;66.90;17.20;103067.00;;;;5067752;28;20200;-46
2023/12/16 00:10:28;;;;;;;4.73;3.87;;;16.30;66.10;17.20;103065.00;;;;5065128;28;20224;-46
2023/12/16 00:12:53;;;;;;;3.90;3.50;;;16.30;66.20;17.20;103064.00;;;;5067004;28;20230;-46
2023/12/16 00:15:19;;;;;;;4.43;3.70;;;16.20;66.10;17.20;103071.00;;;;5065097;28;20184;-46
2023/12/16 00:17:45;;;;;;;4.00;3.60;;;16.30;66.30;17.20;103069.00;;;;5066795;28;20540;-46
2023/12/16 00:20:11;;;;;;;4.77;3.90;;;16.30;66.30;17.20;103067.00;;;;5065424;28;20256;-46
2023/12/16 00:22:38;;;;;;;4.20;3.80;;;16.30;66.30;17.20;103049.00;;;;5063203;28;20181;-46
2023/12/16 00:25:07;;;;;;;4.47;3.70;;;16.20;66.30;17.20;103064.00;;;;5063400;28;20254;-46
2023/12/16 00:27:32;;;;;;;3.70;3.40;;;16.20;66.30;17.20;103075.00;;;;5061545;28;20344;-46
2023/12/16 00:29:58;;;;;;;3.80;3.50;;;16.20;66.40;17.20;103061.00;;;;5066753;28;20585;-45
2023/12/16 00:32:24;;;;;;;4.20;3.40;;;16.20;66.30;17.20;103060.00;;;;5065084;28;20200;-46
2023/12/16 00:34:50;;;;;;;3.90;3.47;;;16.30;66.50;17.20;103072.00;;;;5061829;28;20174;-46
2023/12/16 00:37:16;;;;;;;3.73;3.43;;;16.20;66.40;17.10;103064.00;;;;5064727;28;20204;-46
2023/12/16 00:39:41;;;;;;;4.27;3.60;;;16.20;66.50;17.10;103056.00;;;;5066771;28;20656;-45
2023/12/16 00:42:07;;;;;;;3.83;3.43;;;16.20;66.50;17.10;103060.00;;;;5065863;28;20199;-46
2023/12/16 00:44:33;;;;;;;3.90;3.50;;;16.20;66.50;17.10;103048.00;;;;5065490;28;20180;-45
2023/12/16 00:47:03;;;;;;;3.90;3.50;;;16.20;66.50;17.10;103053.00;;;;5062132;28;20214;-45
2023/12/16 00:49:29;;;;;;;3.57;3.27;;;16.20;67.30;17.10;103047.00;;;;5064995;28;20320;-45
2023/12/16 00:51:56;;;;;;;4.03;3.37;;;16.10;66.50;17.10;103062.00;;;;5065592;28;20180;-45
2023/12/16 00:54:22;;;;;;;4.93;3.30;;;16.20;66.70;17.10;103048.00;;;;5063806;28;20673;-45
2023/12/16 00:56:48;;;;;;;3.63;3.27;;;16.10;66.60;17.10;103055.00;;;;5067226;28;20298;-46
2023/12/16 00:59:14;;;;;;;3.63;3.33;;;16.10;66.60;17.10;103061.00;;;;5061960;28;20315;-48
2023/12/16 01:01:39;;;;;;;4.03;3.30;;;16.10;66.60;17.10;103047.00;;;;5066123;28;20241;-46
2023/12/16 01:04:05;;;;;;;3.70;3.40;;;16.10;66.70;17.10;103054.00;;;;5061051;28;20863;-45
2023/12/16 01:06:31;;;;;;;3.53;3.20;;;16.10;66.60;17.10;103056.00;;;;5064300;28;20192;-45
2023/12/16 01:08:57;;;;;;;3.60;3.30;;;16.10;66.60;17.00;103049.00;;;;5065538;28;20260;-45
2023/12/16 01:11:23;;;;;;;3.37;3.07;;;16.10;66.60;17.00;103053.00;;;;5063315;28;20281;-46
2023/12/16 01:13:49;;;;;;;3.50;3.20;;;16.10;66.80;17.00;103058.00;;;;5065188;28;20224;-45
2023/12/16 01:16:15;;;;;;;3.50;3.20;;;16.10;66.80;17.00;103057.00;;;;5065131;28;20204;-46
2023/12/16 01:18:40;;;;;;;3.60;3.30;;;16.10;67.30;17.00;103063.00;;;;5067481;28;20195;-46
2023/12/16 01:21:07;;;;;;;3.90;3.50;;;16.10;66.80;17.00;103072.00;;;;5065436;28;20231;-46
2023/12/16 01:23:33;;;;;;;3.30;3.00;;;16.10;66.80;17.00;103076.00;;;;5062926;28;20177;-45
2023/12/16 01:25:59;;;;;;;3.30;3.00;;;16.00;66.80;17.00;103068.00;;;;5064976;28;20197;-46
2023/12/16 01:28:24;;;;;;;3.37;3.07;;;16.10;66.90;17.00;103069.00;;;;5064083;28;20541;-46
2023/12/16 01:30:51;;;;;;;4.00;3.17;;;16.00;66.90;17.00;103071.00;;;;5064824;28;20213;-45
2023/12/16 01:33:17;;;;;;;3.20;2.90;;;16.00;66.90;17.00;103073.00;;;;5058048;28;20673;-45
2023/12/16 01:35:42;;;;;;;3.60;3.30;;;16.00;67.60;17.00;103081.00;;;;5064828;28;20209;-45
2023/12/16 01:38:08;;;;;;;3.30;3.00;;;16.00;67.90;16.90;103081.00;;;;5063824;28;20197;-45
2023/12/16 01:40:34;;;;;;;3.57;3.13;;;16.00;68.20;17.00;103084.00;;;;5062225;28;20181;-45
2023/12/16 01:43:04;;;;;;;3.73;3.30;;;16.00;68.30;16.90;103088.00;;;;5059402;28;20207;-45
2023/12/16 01:45:30;;;;;;;3.70;3.40;;;16.00;68.10;16.90;103091.00;;;;5062591;28;20301;-45
2023/12/16 01:47:56;;;;;;;3.40;3.10;;;15.90;68.00;16.90;103099.00;;;;5064791;28;20205;-45
2023/12/16 01:50:22;;;;;;;3.80;3.30;;;15.90;68.00;16.90;103011.00;;;;5063184;28;20201;-45
2023/12/16 01:52:48;;;;;;;3.53;3.20;;;15.90;67.90;16.90;103105.00;;;;5064689;28;20186;-45
2023/12/16 01:55:13;;;;;;;3.20;2.90;;;15.90;67.80;16.90;103117.00;;;;5062722;28;20421;-46
2023/12/16 01:57:39;;;;;;;3.47;3.10;;;15.90;68.00;16.90;103113.00;;;;5056752;28;20343;-45
2023/12/16 02:00:06;;;;;;;3.23;2.93;;;15.90;67.90;16.90;103104.00;;;;5060161;28;20180;-47
2023/12/16 02:02:32;;;;;;;3.97;3.07;;;15.90;67.80;16.90;103107.00;;;;5062499;28;20176;-45
2023/12/16 02:04:57;;;;;;;3.30;3.00;;;15.90;67.80;16.90;103098.00;;;;5058992;28;20178;-45
2023/12/16 02:07:24;;;;;;;3.20;2.90;;;15.90;67.80;16.90;103101.00;;;;5061302;28;20214;-45
2023/12/16 02:09:49;;;;;;;3.20;2.90;;;15.80;67.80;16.90;103110.00;;;;5064572;28;20230;-45
2023/12/16 02:12:15;;;;;;;3.27;2.97;;;15.90;67.70;16.90;103092.00;;;;5044593;28;20187;-45
2023/12/16 02:14:41;;;;;;;3.10;2.80;;;15.90;67.70;16.90;103091.00;;;;5064353;28;20200;-45
2023/12/16 02:17:06;;;;;;;3.27;2.97;;;15.90;67.70;16.90;103099.00;;;;5063736;28;20209;-47
2023/12/16 02:19:32;;;;;;;3.47;3.00;;;15.80;67.60;16.80;103098.00;;;;5063510;28;20187;-46
2023/12/16 02:21:59;;;;;;;3.00;2.70;;;15.90;67.70;16.80;103093.00;;;;5046328;28;20179;-46
2023/12/16 02:24:25;;;;;;;3.17;2.87;;;15.90;67.70;16.80;103099.00;;;;5062393;28;20654;-46
2023/12/16 02:26:51;;;;;;;3.30;3.00;;;15.80;67.60;16.80;103115.00;;;;5047670;28;20208;-45
2023/12/16 02:29:17;;;;;;;3.00;2.70;;;15.80;67.70;16.80;103104.00;;;;5062659;28;20817;-45
2023/12/16 02:31:42;;;;;;;3.13;2.80;;;15.80;67.80;16.80;103102.00;;;;5063038;28;20175;-45
2023/12/16 02:34:08;;;;;;;3.10;2.80;;;15.80;67.80;16.80;103094.00;;;;5059318;28;20219;-45
2023/12/16 02:36:34;;;;;;;2.73;2.53;;;15.80;67.80;16.80;103096.00;;;;5066224;28;20203;-47
2023/12/16 02:39:00;;;;;;;3.20;2.90;;;15.80;67.80;16.80;103092.00;;;;5068308;28;20176;-45
2023/12/16 02:41:25;;;;;;;3.10;2.80;;;15.80;67.80;16.80;103088.00;;;;5065929;28;20172;-45
2023/12/16 02:43:51;;;;;;;3.30;3.00;;;15.80;67.80;16.80;103091.00;;;;5066676;28;20177;-46
2023/12/16 02:46:17;;;;;;;2.90;2.70;;;15.80;68.40;16.80;103087.00;;;;5066560;28;20232;-45
2023/12/16 02:48:43;;;;;;;3.20;2.90;;;15.70;67.80;16.70;103094.00;;;;5068124;28;20687;-46
2023/12/16 02:51:17;;;;;;;3.33;2.90;;;15.70;67.90;16.70;103104.00;;;;5066319;28;20256;-45
2023/12/16 02:53:43;;;;;;;3.03;2.73;;;15.70;67.90;16.70;103094.00;;;;5071393;28;20205;-45
2023/12/16 02:56:09;;;;;;;2.93;2.63;;;15.70;67.90;16.70;103103.00;;;;5067051;28;20649;-45
2023/12/16 02:58:35;;;;;;;2.60;2.40;;;15.70;67.90;16.70;103097.00;;;;5067057;28;20641;-45
2023/12/16 03:01:00;;;;;;;3.10;2.80;;;15.70;68.00;16.70;103093.00;;;;5065301;28;20181;-45
2023/12/16 03:03:26;;;;;;;2.80;2.60;;;15.70;68.10;16.70;103091.00;;;;5062028;28;20174;-45
2023/12/16 03:05:52;;;;;;;2.87;2.67;;;15.70;68.00;16.70;103099.00;;;;5067687;28;20181;-49
2023/12/16 03:08:18;;;;;;;3.20;2.90;;;15.70;68.10;16.70;103103.00;;;;5065626;28;20673;-45
2023/12/16 03:10:43;;;;;;;2.90;2.70;;;15.70;68.00;16.70;103108.00;;;;5067858;28;20853;-45
2023/12/16 03:13:09;;;;;;;3.10;2.80;;;15.70;68.20;16.70;103094.00;;;;5066678;28;20183;-45
2023/12/16 03:15:35;;;;;;;3.20;2.90;;;15.70;68.20;16.70;103091.00;;;;5064301;28;20175;-46
2023/12/16 03:18:01;;;;;;;2.97;2.67;;;15.70;68.20;16.70;103091.00;;;;5063690;28;20205;-46
2023/12/16 03:20:26;;;;;;;2.67;2.47;;;15.70;68.20;16.70;103097.00;;;;5065995;28;20201;-46
2023/12/16 03:22:52;;;;;;;2.97;2.73;;;15.70;68.20;16.70;103096.00;;;;5067199;28;20680;-49
2023/12/16 03:25:19;;;;;;;3.23;2.90;;;15.60;68.20;16.60;103083.00;;;;5067375;28;20182;-46
2023/12/16 03:27:45;;;;;;;3.10;2.80;;;15.60;68.30;16.60;103080.00;;;;5070147;28;20201;-46
2023/12/16 03:30:11;;;;;;;2.80;2.60;;;15.60;68.20;16.60;103075.00;;;;5065144;28;20185;-47
2023/12/16 03:32:37;;;;;;;2.97;2.60;;;15.60;68.30;16.60;103069.00;;;;5065531;28;20178;-45
2023/12/16 03:35:03;;;;;;;3.30;3.00;;;15.60;68.20;16.60;103087.00;;;;5063646;28;20562;-46
2023/12/16 03:37:28;;;;;;;2.80;2.60;;;15.60;68.40;16.60;103078.00;;;;5065150;28;20214;-45
2023/12/16 03:39:54;;;;;;;3.07;2.57;;;15.60;68.40;16.60;102998.00;;;;5067985;28;20719;-45
2023/12/16 03:42:20;;;;;;;2.67;2.47;;;15.50;68.30;16.60;103076.00;;;;5066427;28;20201;-45
2023/12/16 03:44:48;;;;;;;2.83;2.63;;;15.50;68.40;16.60;103086.00;;;;5066096;28;20242;-45
2023/12/16 03:47:14;;;;;;;2.80;2.60;;;15.50;68.50;16.60;103086.00;;;;5064921;28;20210;-46
2023/12/16 03:49:41;;;;;;;3.07;2.77;;;15.50;68.30;16.60;103081.00;;;;5065870;28;20182;-46
2023/12/16 03:52:07;;;;;;;2.80;2.60;;;15.50;68.40;16.50;103076.00;;;;5066526;28;20208;-46
2023/12/16 03:54:33;;;;;;;2.80;2.60;;;15.50;68.30;16.50;103067.00;;;;5066053;28;20182;-46
2023/12/16 03:56:58;;;;;;;2.70;2.50;;;15.60;68.40;16.50;103069.00;;;;5066786;28;20220;-46
2023/12/16 03:59:24;;;;;;;2.90;2.60;;;15.50;68.50;16.50;103073.00;;;;5063583;28;20216;-46
2023/12/16 04:01:50;;;;;;;2.70;2.50;;;15.50;68.40;16.50;103074.00;;;;5069232;28;20553;-45
2023/12/16 04:04:15;;;;;;;3.13;2.50;;;15.50;68.60;16.50;103071.00;;;;5062827;28;20190;-47
2023/12/16 04:06:45;;;;;;;3.10;2.80;;;15.50;68.40;16.50;103071.00;;;;5067813;28;20185;-46
2023/12/16 04:09:10;;;;;;;3.30;2.70;;;15.50;68.50;16.50;103069.00;;;;5067386;28;20179;-46
2023/12/16 04:11:36;;;;;;;2.90;2.67;;;15.40;68.40;16.50;103071.00;;;;5067272;28;20184;-45
2023/12/16 04:14:02;;;;;;;2.80;2.60;;;15.40;68.40;16.50;103066.00;;;;5067483;28;20178;-45
2023/12/16 04:16:28;;;;;;;3.57;2.50;;;15.50;68.60;16.50;103070.00;;;;5064354;28;20553;-45
2023/12/16 04:18:54;;;;;;;2.80;2.60;;;15.40;68.40;16.50;103079.00;;;;5068646;28;20527;-46
2023/12/16 04:21:19;;;;;;;2.73;2.53;;;15.40;68.50;16.50;103074.00;;;;5069582;28;20190;-46
2023/12/16 04:23:45;;;;;;;2.50;2.30;;;15.50;68.60;16.50;103077.00;;;;5064637;28;20182;-46
2023/12/16 04:26:11;;;;;;;3.00;2.60;;;15.40;68.50;16.50;103081.00;;;;5065162;28;20184;-46
2023/12/16 04:28:36;;;;;;;4.47;2.60;;;15.40;68.60;16.40;103076.00;;;;5060911;28;20266;-46
2023/12/16 04:31:02;;;;;;;4.30;2.83;;;15.50;69.00;16.40;103082.00;;;;5067411;28;20189;-46
2023/12/16 04:33:28;;;;;;;4.90;2.50;;;15.40;68.80;16.40;103090.00;;;;5060195;28;20187;-46
2023/12/16 04:35:54;;;;;;;2.80;2.50;;;15.40;68.90;16.40;103091.00;;;;5066557;28;20202;-45
2023/12/16 04:38:20;;;;;;;6.03;2.60;;;15.40;68.80;16.40;103086.00;;;;5064895;28;20205;-46
2023/12/16 04:40:46;;;;;;;3.47;2.60;;;15.40;68.70;16.40;103089.00;;;;5066151;28;20179;-46
2023/12/16 04:43:12;;;;;;;3.30;2.60;;;15.40;68.50;16.40;103092.00;;;;5065954;28;20181;-46
2023/12/16 04:45:37;;;;;;;3.33;2.70;;;15.40;68.40;16.40;103090.00;;;;5067048;28;20556;-46
2023/12/16 04:48:03;;;;;;;3.23;2.90;;;15.50;68.40;16.40;103093.00;;;;5066999;28;20242;-46
2023/12/16 04:50:29;;;;;;;3.40;2.77;;;15.50;68.20;16.40;103088.00;;;;5065515;28;20181;-45
2023/12/16 04:52:55;;;;;;;5.37;2.80;;;15.40;68.00;16.40;103091.00;;;;5065448;28;20210;-45
2023/12/16 04:55:21;;;;;;;3.60;2.80;;;15.50;68.10;16.40;103082.00;;;;5065428;28;20186;-45
2023/12/16 04:57:46;;;;;;;5.03;2.90;;;15.50;68.00;16.40;103085.00;;;;5065912;28;20264;-45
2023/12/16 05:00:13;;;;;;;4.73;2.70;;;15.40;67.80;16.40;103082.00;;;;5061147;28;20185;-46
2023/12/16 05:02:39;;;;;;;3.67;2.60;;;15.40;67.70;16.40;103070.00;;;;5058418;28;20167;-46
2023/12/16 05:05:05;;;;;;;4.20;3.10;;;15.40;67.60;16.40;103076.00;;;;5078731;28;20177;-46
2023/12/16 05:07:31;;;;;;;5.23;2.70;;;15.40;67.60;16.40;103085.00;;;;5065797;28;20202;-45
2023/12/16 05:09:57;;;;;;;5.27;2.90;;;15.40;67.60;16.40;103081.00;;;;5066763;28;20193;-46
2023/12/16 05:12:22;;;;;;;5.40;3.20;;;15.40;67.60;16.30;103097.00;;;;5050562;28;20178;-46
2023/12/16 05:14:48;;;;;;;6.93;2.97;;;15.40;67.50;16.30;103096.00;;;;5061114;28;20717;-45
2023/12/16 05:17:14;;;;;;;3.83;3.00;;;15.40;67.50;16.30;103092.00;;;;5065771;28;20229;-44
2023/12/16 05:19:39;;;;;;;4.63;2.90;;;15.40;67.40;16.30;103099.00;;;;5051318;28;20227;-45
2023/12/16 05:22:05;;;;;;;6.17;2.97;;;15.40;67.40;16.30;103105.00;;;;5065930;28;20171;-45
2023/12/16 05:24:31;;;;;;;6.47;3.00;;;15.30;67.30;16.30;103105.00;;;;5065065;28;20182;-46
2023/12/16 05:26:57;;;;;;;4.27;2.90;;;15.30;67.30;16.30;103100.00;;;;5064515;28;20644;-45
2023/12/16 05:29:22;;;;;;;4.90;2.93;;;15.30;67.30;16.30;103096.00;;;;5056196;28;20651;-44
2023/12/16 05:31:48;;;;;;;6.90;2.70;;;15.30;67.20;16.30;103097.00;;;;5064922;28;20529;-45
2023/12/16 05:34:14;;;;;;;6.30;2.80;;;15.30;67.20;16.30;103100.00;;;;5059037;28;20655;-45
2023/12/16 05:36:39;;;;;;;4.27;2.90;;;15.30;67.10;16.30;103106.00;;;;5059289;28;20257;-45
2023/12/16 05:39:05;;;;;;;4.50;3.10;;;15.30;67.20;16.30;103089.00;;;;5059876;28;20183;-45
2023/12/16 05:41:31;;;;;;;3.90;2.60;;;15.30;67.10;16.30;103085.00;;;;5072510;28;20175;-46
2023/12/16 05:43:57;;;;;;;8.80;2.97;;;15.30;67.00;16.20;103087.00;;;;5067689;28;20652;-45
2023/12/16 05:46:23;;;;;;;6.70;3.00;;;15.20;67.00;16.20;103092.00;;;;5064406;28;20235;-45
2023/12/16 05:48:48;;;;;;;4.67;2.93;;;15.30;67.10;16.20;103070.00;;;;5057993;28;20205;-45
2023/12/16 05:51:15;;;;;;;4.43;2.80;;;15.20;67.00;16.20;103086.00;;;;5062019;28;20324;-45
2023/12/16 05:53:40;;;;;;;4.67;2.80;;;15.20;66.90;16.20;103092.00;;;;5065533;28;20220;-45
2023/12/16 05:56:07;;;;;;;5.47;2.90;;;15.20;66.90;16.20;103098.00;;;;5065183;28;20609;-45
2023/12/16 05:58:33;;;;;;;4.13;2.80;;;15.20;66.90;16.20;103096.00;;;;5063250;28;20198;-45
2023/12/16 06:00:59;;;;;;;6.67;3.10;;;15.20;67.00;16.20;103102.00;;;;5061689;28;20178;-45
2023/12/16 06:03:25;;;;;;;3.83;2.93;;;15.20;66.90;16.20;103106.00;;;;5060175;28;20698;-46
2023/12/16 06:05:51;;;;;;;7.67;2.83;;;15.20;66.90;16.20;103116.00;;;;5065992;28;20261;-46
2023/12/16 06:08:16;;;;;;;5.47;2.80;;;15.20;67.00;16.20;103113.00;;;;5063805;28;20745;-45
2023/12/16 06:10:42;;;;;;;4.77;3.00;;;15.20;66.90;16.20;103117.00;;;;5058409;28;20825;-45
2023/12/16 06:13:08;;;;;;;5.70;2.60;;;15.20;66.90;16.10;103118.00;;;;5065109;28;20184;-46
2023/12/16 06:15:33;;;;;;;4.20;2.70;;;15.20;67.10;16.10;103123.00;;;;5064951;28;20283;-46
2023/12/16 06:18:03;;;;;;;3.87;2.90;;;15.20;67.90;16.10;103113.00;;;;5065788;28;20189;-46
2023/12/16 06:20:30;;;;;;;3.83;2.70;;;15.10;67.10;16.10;103118.00;;;;5057236;28;20166;-46
2023/12/16 06:22:56;;;;;;;4.87;2.70;;;15.10;67.10;16.10;103117.00;;;;5065052;28;20174;-46
2023/12/16 06:25:21;;;;;;;4.90;2.83;;;15.10;67.10;16.10;103113.00;;;;5064014;28;20192;-46
2023/12/16 06:27:47;;;;;;;5.13;2.70;;;15.10;67.20;16.10;103118.00;;;;5065556;28;20190;-46
2023/12/16 06:30:13;;;;;;;3.90;2.90;;;15.10;67.20;16.10;103104.00;;;;5056636;28;20175;-46
2023/12/16 06:32:39;;;;;;;3.60;2.60;;;15.20;67.30;16.10;103104.00;;;;5056607;28;20185;-45
2023/12/16 06:35:06;;;;;;;2.73;2.43;;;15.10;67.20;16.10;103113.00;;;;5061996;28;20182;-46
2023/12/16 06:37:31;;;;;;;3.73;2.60;;;15.10;67.20;16.10;103117.00;;;;5064061;28;20222;-46
2023/12/16 06:39:57;;;;;;;2.93;2.57;;;15.20;67.20;16.10;103109.00;;;;5058498;28;20294;-45
2023/12/16 06:42:23;;;;;;;4.17;2.70;;;15.10;67.10;16.10;103112.00;;;;5063658;28;20713;-46
2023/12/16 06:44:48;;;;;;;4.97;2.77;;;15.10;67.10;16.10;103112.00;;;;5065375;28;20805;-46
2023/12/16 06:47:14;;;;;;;4.20;2.70;;;15.10;67.10;16.10;103110.00;;;;5064081;28;20251;-46
2023/12/16 06:49:40;;;;;;;5.70;2.90;;;15.10;67.20;16.00;103119.00;;;;5058670;28;20259;-46
2023/12/16 06:52:06;;;;;;;3.13;2.40;;;15.10;67.10;16.10;103117.00;;;;5064837;28;20223;-46
2023/12/16 06:54:31;;;;;;;3.87;2.50;;;15.10;67.20;16.00;103110.00;;;;5064391;28;20561;-46
2023/12/16 06:56:57;;;;;;;3.30;2.40;;;15.10;67.20;16.00;103110.00;;;;5064301;28;20206;-45
2023/12/16 06:59:23;;;;;;;3.00;2.37;;;15.10;67.20;16.00;103103.00;;;;5056970;28;20167;-45
2023/12/16 07:01:48;;;;;;;3.13;2.20;;;15.00;67.10;16.00;103101.00;;;;5064312;28;20175;-45
2023/12/16 07:04:14;;;;;;;3.73;2.50;;;15.10;67.20;16.00;103113.00;;;;5059980;28;20231;-46
2023/12/16 07:06:40;;;;;;;2.97;2.30;;;15.00;67.20;16.00;103109.00;;;;5065231;28;20243;-46
2023/12/16 07:09:06;;;;;;;2.77;2.30;;;15.00;67.10;16.00;103108.00;;;;5058551;28;20182;-45
2023/12/16 07:11:34;;;;;;;3.33;2.50;;;15.00;67.20;16.00;103120.00;;;;5058060;28;20657;-46
2023/12/16 07:14:00;;;;;;;4.10;2.43;;;15.00;67.20;16.00;103129.00;;;;5065895;28;20261;-46
2023/12/16 07:16:25;;;;;;;3.07;2.43;;;15.00;67.20;16.00;103132.00;;;;5063028;28;20277;-45
2023/12/16 07:18:51;;;;;;;2.90;2.30;;;15.00;67.20;16.00;103144.00;;;;5060744;28;20182;-46
2023/12/16 07:21:17;;;;;;;2.50;2.30;;;15.10;67.20;16.00;103143.00;;;;5063103;28;20181;-46
2023/12/16 07:23:43;;;;;;;4.00;2.43;;;15.00;67.10;16.00;103147.00;;;;5069590;28;20192;-55
2023/12/16 07:26:08;;;;;;;3.10;2.53;;;15.00;67.20;16.00;103152.00;;;;5072781;28;20211;-45
2023/12/16 07:28:34;;;;;;;2.60;2.40;;;15.00;67.30;16.00;103157.00;;;;5067853;28;20267;-45
2023/12/16 07:31:00;;;;;;;2.40;2.20;;;15.00;67.20;16.00;103157.00;;;;5063481;28;20588;-45
2023/12/16 07:33:26;;;;;;;2.77;2.20;;;15.00;67.20;16.00;103157.00;;;;5061496;28;20182;-45
2023/12/16 07:35:51;;;;;;;2.97;2.67;;;15.00;67.30;16.00;103069.00;;;;5068231;28;20201;-45
2023/12/16 07:38:17;;;;;;;3.07;2.70;;;15.00;67.20;15.70;103139.00;;;;5067268;28;20194;-45
2023/12/16 07:40:43;;;;;;;2.77;2.20;;;15.00;67.30;16.00;103134.00;;;;5055197;28;20162;-47
2023/12/16 07:43:08;;;;;;;2.43;2.23;;;14.90;67.20;15.90;103141.00;;;;5065989;28;20181;-45
2023/12/16 07:45:36;;;;;;;3.00;2.40;;;15.00;67.40;15.90;103140.00;;;;5065004;28;20189;-45
2023/12/16 07:48:02;;;;;;;3.47;2.67;;;14.90;67.20;15.90;103151.00;;;;5064338;28;20201;-45
2023/12/16 07:50:27;;;;;;;2.60;2.40;;;14.90;67.30;15.90;103154.00;;;;5060932;28;20189;-45
2023/12/16 07:52:53;;;;;;;3.00;2.30;;;14.90;67.30;15.90;103138.00;;;;5067882;28;20178;-45
2023/12/16 07:55:19;;;;;;;2.60;2.40;;;14.90;67.20;15.90;103162.00;;;;5067059;28;20169;-46
2023/12/16 07:57:45;;;;;;;2.60;2.30;;;14.90;67.20;15.90;103146.00;;;;5071127;28;20687;-45
2023/12/16 08:00:11;;;;;;;2.30;2.10;;;14.90;67.20;15.90;103154.00;;;;5059427;28;20261;-46
2023/12/16 08:02:36;;;;;;;3.10;2.23;;;14.90;67.20;15.90;103147.00;;;;5066071;28;20177;-45
2023/12/16 08:05:03;;;;;;;2.97;2.40;;;14.90;67.30;15.90;103147.00;;;;5065569;28;20169;-46
2023/12/16 08:07:29;;;;;;;2.30;2.10;;;14.90;67.30;15.90;103155.00;;;;5066774;28;20194;-45
2023/12/16 08:09:54;;;;;;;2.50;2.30;;;14.90;67.20;15.90;103156.00;;;;5060564;28;20227;-45
2023/12/16 08:12:20;;;;;;;2.33;2.03;;;14.90;67.40;15.90;103155.00;;;;5059363;28;20181;-45
2023/12/16 08:14:46;;;;;;;2.60;2.37;;;14.90;67.30;15.90;103151.00;;;;5068086;28;20395;-45
2023/12/16 08:17:11;;;;;;;2.57;2.10;;;14.90;67.30;15.90;103155.00;;;;5067048;28;20240;-45
2023/12/16 08:19:37;;;;;;;2.30;2.10;;;14.90;67.30;15.90;103164.00;;;;5060395;28;20269;-46
2023/12/16 08:22:03;;;;;;;2.40;2.20;;;14.80;67.20;15.90;103173.00;;;;5063165;28;20535;-45
2023/12/16 08:24:29;;;;;;;2.33;2.00;;;14.90;67.30;15.90;103172.00;;;;5055838;28;20240;-45
2023/12/16 08:26:55;;;;;;;2.57;2.20;;;14.90;67.20;15.80;103171.00;;;;5064612;28;20272;-45
2023/12/16 08:29:20;;;;;;;2.80;2.20;;;14.90;67.30;15.80;103168.00;;;;5059144;28;20197;-45
2023/12/16 08:31:46;;;;;;;2.20;2.00;;;14.90;67.40;15.80;103178.00;;;;5066306;28;20178;-45
2023/12/16 08:34:12;;;;;;;2.40;2.20;;;14.80;67.40;15.80;103179.00;;;;5060707;28;20342;-45
2023/12/16 08:36:39;;;;;;;2.63;2.43;;;14.80;67.40;15.80;103175.00;;;;5052780;28;20202;-45
2023/12/16 08:39:05;;;;;;;3.07;2.20;;;14.80;67.50;15.80;103186.00;;;;5054192;28;20170;-45
2023/12/16 08:41:30;;;;;;;2.93;2.40;;;14.90;67.70;15.80;103183.00;;;;5061641;28;20174;-44
2023/12/16 08:43:56;;;;;;;2.17;2.00;;;14.90;67.70;15.80;103191.00;;;;5064693;28;20165;-45
2023/12/16 08:46:23;;;;;;;4.30;2.20;;;15.00;67.60;15.90;103192.00;;;;5065789;28;20177;-45
2023/12/16 08:48:49;;;;;;;2.30;2.10;;;15.10;67.70;15.90;103104.00;;;;5061707;28;20210;-45
2023/12/16 08:51:22;;;;;;;2.73;2.27;;;15.20;67.70;16.00;103192.00;;;;5058198;28;20180;-45
2023/12/16 08:53:48;;;;;;;2.40;2.20;;;15.30;68.30;16.00;103198.00;;;;5061423;28;20181;-45
2023/12/16 08:56:14;;;;;;;2.70;2.00;;;15.40;67.60;16.10;103195.00;;;;5060133;28;20215;-45
2023/12/16 08:58:40;;;;;;;2.77;2.30;;;15.50;67.60;16.20;103130.00;;;;5049636;28;20412;-46
2023/12/16 09:01:06;;;;;;;2.93;2.13;;;15.70;67.60;16.30;103202.00;;;;5061882;28;20261;-45
2023/12/16 09:03:32;;;;;;;2.20;2.00;;;15.90;67.50;16.40;103205.00;;;;5061487;28;20977;-45
2023/12/16 09:05:58;;;;;;;2.50;2.30;;;16.00;67.20;16.60;103212.00;;;;5066850;28;20260;-45
2023/12/16 09:08:23;;;;;;;2.27;2.00;;;16.20;67.20;16.70;103215.00;;;;5063903;28;20290;-45
2023/12/16 09:10:49;;;;;;;2.60;2.00;;;16.40;67.00;16.80;103209.00;;;;5058708;28;20256;-45
2023/12/16 09:13:15;;;;;;;2.00;1.80;;;16.50;66.70;16.90;103208.00;;;;5064878;28;20235;-45
2023/12/16 09:15:41;;;;;;;2.10;1.87;;;16.60;66.80;17.00;103217.00;;;;5066274;28;20226;-45
2023/12/16 09:18:06;;;;;;;2.10;1.90;;;16.70;66.30;17.20;103223.00;;;;5066011;28;20623;-45
2023/12/16 09:20:34;;;;;;;2.20;2.00;;;16.90;66.20;17.30;103228.00;;;;5057921;28;20178;-45
2023/12/16 09:22:59;;;;;;;2.10;1.90;;;17.00;66.20;17.40;103235.00;;;;5066228;28;20268;-45
2023/12/16 09:25:25;;;;;;;2.20;2.00;;;17.10;66.30;17.50;103233.00;;;;5064825;28;20262;-45
2023/12/16 09:27:51;;;;;;;2.23;2.03;;;17.20;66.40;17.60;103240.00;;;;5061210;28;20898;-45
2023/12/16 09:30:19;;;;;;;2.43;2.20;;;17.30;66.40;17.70;103240.00;;;;5054826;28;20174;-45
2023/12/16 09:32:45;;;;;;;2.13;1.80;;;17.40;66.20;17.80;103240.00;;;;5066228;28;20214;-45
2023/12/16 09:35:11;;;;;;;2.57;2.10;;;17.50;66.20;17.90;103247.00;;;;5067192;28;20642;-46
2023/12/16 09:37:36;;;;;;;2.20;1.93;;;17.50;66.10;18.00;103237.00;;;;5065441;28;20201;-46
2023/12/16 09:40:03;;;;;;;1.93;1.83;;;17.60;66.10;18.10;103235.00;;;;5058587;28;20177;-45
2023/12/16 09:42:29;;;;;;;2.27;2.07;;;17.70;66.20;18.20;103238.00;;;;5064528;28;20199;-44
2023/12/16 09:44:57;;;;;;;3.20;1.97;;;17.70;66.10;18.20;103232.00;;;;5064791;28;20261;-45
2023/12/16 09:47:24;;;;;;;2.00;1.80;;;17.80;66.20;18.30;103227.00;;;;5064727;28;20711;-44
2023/12/16 09:49:50;;;;;;;2.40;1.80;;;17.90;66.30;18.40;103227.00;;;;5056805;28;20189;-47
2023/12/16 09:52:16;;;;;;;2.77;2.10;;;17.90;67.00;18.50;103232.00;;;;5046653;28;20189;-45
2023/12/16 09:54:42;;;;;;;2.00;1.80;;;18.10;67.20;18.50;103218.00;;;;5061555;28;20178;-45
2023/12/16 09:57:08;;;;;;;2.30;1.93;;;18.10;67.20;18.60;103229.00;;;;5062328;28;20587;-44
2023/12/16 09:59:33;;;;;;;1.93;1.77;;;18.10;66.80;18.60;103226.00;;;;5054229;28;20185;-45
2023/12/16 10:02:03;;;;;;;2.63;2.07;;;18.10;66.90;18.70;103224.00;;;;5045398;28;20603;-44
2023/12/16 10:04:28;;;;;;;2.00;1.80;;;18.10;67.00;18.70;103215.00;;;;5056045;28;20187;-46
2023/12/16 10:06:54;;;;;;;2.80;2.07;;;18.10;66.90;18.70;103213.00;;;;5064616;28;20189;-46
2023/12/16 10:09:20;;;;;;;3.87;2.03;;;18.10;67.30;18.70;103220.00;;;;5057237;28;20178;-46
2023/12/16 10:11:51;;;;;;;5.17;2.27;;;18.10;67.70;18.80;103225.00;;;;5065355;28;20211;-46
2023/12/16 10:14:17;;;;;;;6.10;2.23;;;18.10;68.90;18.70;103228.00;;;;5064290;28;20185;-44
2023/12/16 10:16:47;;;;;;;4.07;2.00;;;18.10;69.30;18.80;103225.00;;;;5065857;28;20200;-46
2023/12/16 10:19:12;;;;;;;3.47;2.00;;;18.10;68.80;18.70;103221.00;;;;5056026;28;20205;-45
2023/12/16 10:21:39;;;;;;;2.23;1.93;;;18.00;68.60;18.70;103222.00;;;;5064861;28;20667;-46
2023/12/16 10:24:05;;;;;;;4.03;1.90;;;18.00;68.60;18.70;103231.00;;;;5059461;28;20208;-46
2023/12/16 10:26:33;;;;;;;4.03;2.00;;;18.00;68.70;18.70;103226.00;;;;5058828;28;20206;-46
2023/12/16 10:29:04;;;;;;;3.80;2.20;;;17.90;68.70;18.70;103219.00;;;;5061046;28;20256;-46
2023/12/16 10:31:29;;;;;;;2.00;1.80;;;17.90;68.70;18.70;103223.00;;;;5061058;28;20175;-46
2023/12/16 10:33:55;;;;;;;3.83;2.10;;;17.90;68.80;18.70;103222.00;;;;5060776;28;20621;-46
2023/12/16 10:36:21;;;;;;;2.90;1.93;;;17.90;69.00;18.70;103210.00;;;;5065129;28;20197;-45
2023/12/16 10:38:47;;;;;;;4.07;2.27;;;17.90;69.10;18.70;103203.00;;;;5061982;28;20848;-45
2023/12/16 10:41:13;;;;;;;2.50;1.90;;;17.80;69.00;18.70;103202.00;;;;5061574;28;20174;-46